Time;durP1;ratioP1;P1;durP2;ratioP2;P2;SDS_P1;SDS_P2;PMS_P1;PMS_P2;Temp;Humidity;BMP_temperature;BMP_pressure;BME280_temperature;BME280_humidity;BME280_pressure;Samples;Min_cycle;Max_cycle;Signal;HPM_P1;HPM_P2
2021/03/26 00:00:46;;;;;;;;;49.50;39.75;;;;;27.23;56.64;98879.50;5042579;28;10293;-72
2021/03/26 00:03:18;;;;;;;;;51.50;43.00;;;;;27.26;56.93;98890.34;5044104;28;10026;-73
2021/03/26 00:05:50;;;;;;;;;46.00;36.75;;;;;27.23;56.41;98880.28;5039904;28;10443;-73
2021/03/26 00:08:19;;;;;;;;;49.75;41.75;;;;;27.33;56.00;98895.03;5042751;28;10271;-74
2021/03/26 00:10:48;;;;;;;;;49.75;40.25;;;;;27.36;56.28;98891.56;5041005;28;10263;-73
2021/03/26 00:13:16;;;;;;;;;51.50;42.25;;;;;27.35;56.50;98890.00;5050837;28;10664;-73
2021/03/26 00:15:44;;;;;;;;;52.00;43.75;;;;;27.42;56.52;98897.41;5042224;28;10331;-73
2021/03/26 00:18:13;;;;;;;;;43.25;34.75;;;;;27.46;55.92;98917.19;5041571;28;10354;-73
2021/03/26 00:20:41;;;;;;;;;47.25;40.25;;;;;27.42;55.98;98917.16;5041766;28;11053;-72
2021/03/26 00:23:09;;;;;;;;;52.00;42.50;;;;;27.44;56.21;98925.69;5043785;28;10449;-73
2021/03/26 00:25:39;;;;;;;;;54.50;43.50;;;;;27.47;56.58;98932.28;5038782;28;10170;-73
2021/03/26 00:28:07;;;;;;;;;54.00;44.50;;;;;27.48;56.60;98936.56;5031540;28;10216;-73
2021/03/26 00:30:35;;;;;;;;;49.00;41.75;;;;;27.48;56.56;98936.56;5043354;28;10291;-73
2021/03/26 00:33:07;;;;;;;;;49.50;42.50;;;;;27.48;56.59;98941.97;5030691;28;10360;-72
2021/03/26 00:35:36;;;;;;;;;54.00;44.25;;;;;27.48;56.37;98942.75;5033241;28;10022;-71
2021/03/26 00:38:05;;;;;;;;;51.50;42.50;;;;;27.52;55.72;98956.34;5046214;28;11350;-72
2021/03/26 00:40:34;;;;;;;;;58.50;46.75;;;;;27.54;56.80;98954.03;5045848;28;9932;-73
2021/03/26 00:43:04;;;;;;;;;60.25;46.25;;;;;27.58;57.11;98962.97;5047735;28;10441;-72
2021/03/26 00:45:36;;;;;;;;;51.00;42.50;;;;;27.60;56.74;98968.81;5044340;28;11247;-73
2021/03/26 00:48:09;;;;;;;;;51.00;44.00;;;;;27.61;56.20;98984.72;5040155;28;10370;-73
2021/03/26 00:50:44;;;;;;;;;57.25;44.00;;;;;27.66;56.24;98982.81;5032748;28;10383;-73
2021/03/26 00:53:18;;;;;;;;;55.50;46.50;;;;;27.69;57.01;98984.78;5046415;28;10632;-73
2021/03/26 00:55:46;;;;;;;;;55.50;47.25;;;;;27.66;56.51;98982.81;5048326;28;10654;-73
2021/03/26 00:58:16;;;;;;;;;54.25;44.50;;;;;27.75;56.13;98999.53;5049089;28;10704;-72
2021/03/26 01:00:46;;;;;;;;;58.75;48.75;;;;;27.76;57.16;98992.97;5050376;28;10919;-73
2021/03/26 01:03:14;;;;;;;;;55.50;46.00;;;;;27.82;56.63;98988.75;5049595;28;10842;-75
2021/03/26 01:05:49;;;;;;;;;63.50;51.50;;;;;27.85;57.21;98998.84;5050773;28;10659;-74
2021/03/26 01:08:19;;;;;;;;;61.50;49.50;;;;;27.88;56.19;98998.88;5051323;28;11384;-73
2021/03/26 01:10:55;;;;;;;;;57.50;48.00;;;;;27.91;56.37;99013.63;5050990;28;11091;-72
2021/03/26 01:13:25;;;;;;;;;58.50;48.75;;;;;27.92;56.00;99023.31;5048233;28;10762;-71
2021/03/26 01:15:54;;;;;;;;;57.25;46.00;;;;;27.96;55.94;99017.91;5050910;28;11311;-71
2021/03/26 01:18:28;;;;;;;;;53.25;45.25;;;;;27.96;55.97;99017.91;5050668;28;10516;-72
2021/03/26 01:20:59;;;;;;;;;52.00;43.75;;;;;28.03;54.39;99021.44;5047406;28;10357;-73
2021/03/26 01:23:29;;;;;;;;;55.50;45.50;;;;;28.08;55.17;99029.25;5042049;28;10483;-72
2021/03/26 01:25:58;;;;;;;;;57.00;47.00;;;;;28.12;56.68;99037.41;5049881;28;10466;-72
2021/03/26 01:28:28;;;;;;;;;48.25;42.00;;;;;28.10;53.67;99018.00;5049815;28;11011;-71
2021/03/26 01:30:58;;;;;;;;;56.00;44.50;;;;;28.19;55.23;99032.03;5049812;28;10523;-72
2021/03/26 01:33:27;;;;;;;;;54.50;46.00;;;;;28.17;55.80;99037.06;5050233;28;10619;-72
2021/03/26 01:35:57;;;;;;;;;55.25;46.75;;;;;28.24;55.55;99043.34;5050756;28;10752;-73
2021/03/26 01:38:25;;;;;;;;;57.25;47.00;;;;;28.29;56.17;99049.56;5049702;28;10528;-72
2021/03/26 01:40:58;;;;;;;;;54.75;46.50;;;;;28.28;55.49;99043.34;5051065;28;10606;-72
2021/03/26 01:43:46;;;;;;;;;55.50;46.00;;;;;28.35;55.24;99043.41;5049891;28;10806;-72
2021/03/26 01:46:16;;;;;;;;;50.00;42.25;;;;;28.39;55.16;99048.84;5051399;28;10451;-73
2021/03/26 01:48:55;;;;;;;;;52.50;42.25;;;;;28.43;54.79;99053.16;5051208;28;10186;-72
2021/03/26 01:51:28;;;;;;;;;51.75;44.00;;;;;28.43;55.62;99050.44;5051190;28;10191;-72
2021/03/26 01:53:58;;;;;;;;;55.00;45.75;;;;;28.51;55.25;99046.59;5051222;28;10352;-73
2021/03/26 01:56:28;;;;;;;;;54.75;46.00;;;;;28.54;54.49;99043.13;5051559;28;10310;-73
2021/03/26 01:58:56;;;;;;;;;52.75;44.00;;;;;28.56;53.16;99032.69;5051800;28;10196;-75
2021/03/26 02:01:32;;;;;;;;;48.75;41.50;;;;;28.60;53.92;99034.63;5051485;28;10339;-74
2021/03/26 02:04:04;;;;;;;;;48.00;41.75;;;;;28.61;52.93;99031.50;5051320;28;9888;-73
2021/03/26 02:06:39;;;;;;;;;46.75;40.25;;;;;28.64;52.67;99035.41;5051199;28;9956;-74
2021/03/26 02:09:16;;;;;;;;;44.75;39.50;;;;;28.67;52.79;99031.94;5051213;28;9891;-76
2021/03/26 02:11:58;;;;;;;;;44.25;39.00;;;;;28.64;53.00;99028.03;5051324;28;9865;-74
2021/03/26 02:14:36;;;;;;;;;53.25;45.50;;;;;28.64;54.37;99032.69;5048615;28;9963;-74
2021/03/26 02:17:06;;;;;;;;;50.75;42.00;;;;;28.69;54.37;99038.53;5041203;28;10033;-74
2021/03/26 02:19:51;;;;;;;;;48.25;41.25;;;;;28.77;52.67;99036.63;5051143;28;10142;-74
2021/03/26 02:22:24;;;;;;;;;44.75;39.00;;;;;28.82;52.45;99034.38;5051392;28;9947;-73
2021/03/26 02:24:53;;;;;;;;;50.00;42.75;;;;;28.83;53.05;99027.00;5051915;28;10087;-72
2021/03/26 02:27:28;;;;;;;;;45.50;40.00;;;;;28.83;52.51;99035.91;5051382;28;9941;-72
2021/03/26 02:29:58;;;;;;;;;49.75;42.75;;;;;28.79;52.81;99034.31;5053884;28;9871;-74
2021/03/26 02:32:34;;;;;;;;;32.25;30.75;;;;;28.79;53.61;99029.66;5035501;28;9967;-75
2021/03/26 02:35:26;;;;;;;;;47.00;40.00;;;;;28.91;52.51;99034.00;5035228;28;10443;-75
2021/03/26 02:38:19;;;;;;;;;48.75;42.00;;;;;28.96;53.83;99036.38;5050343;28;9931;-74
2021/03/26 02:41:05;;;;;;;;;52.00;44.25;;;;;29.03;53.19;99041.03;5034706;28;10054;-74
2021/03/26 02:44:07;;;;;;;;;50.75;43.00;;;;;29.05;52.93;99015.06;5034834;28;9708;-74
2021/03/26 02:47:15;;;;;;;;;51.00;42.50;;;;;29.21;52.67;99022.88;5034891;28;10118;-73
2021/03/26 02:49:52;;;;;;;;;52.75;42.75;;;;;29.31;52.76;99024.06;5034830;28;9935;-75
2021/03/26 02:52:45;;;;;;;;;46.50;39.75;;;;;29.39;51.78;99018.25;5036590;28;10689;-73
2021/03/26 02:55:40;;;;;;;;;45.75;39.75;;;;;29.41;51.36;99015.91;5043642;28;9528;-74
2021/03/26 02:58:20;;;;;;;;;51.25;42.25;;;;;29.53;52.38;99014.81;5048913;28;9849;-73
2021/03/26 03:01:33;;;;;;;;;44.25;38.25;;;;;29.60;51.53;99005.88;5045448;28;9675;-73
2021/03/26 03:04:15;;;;;;;;;50.50;41.50;;;;;29.64;51.52;99007.44;5044344;28;9624;-73
2021/03/26 03:07:04;;;;;;;;;47.25;40.50;;;;;29.68;51.53;99008.22;5047337;28;9566;-74
2021/03/26 03:09:37;;;;;;;;;49.50;42.00;;;;;29.66;51.48;99001.63;5052393;28;10410;-75
2021/03/26 03:12:13;;;;;;;;;48.25;40.25;;;;;29.64;52.00;98993.84;5045122;28;10037;-75
2021/03/26 03:14:52;;;;;;;;;46.00;38.75;;;;;29.67;51.50;98995.00;5045794;28;9777;-75
2021/03/26 03:17:39;;;;;;;;;51.50;42.50;;;;;29.69;51.48;98993.47;5044245;28;9824;-75
2021/03/26 03:20:21;;;;;;;;;49.75;42.25;;;;;29.64;51.49;98991.13;5060225;28;9778;-74
2021/03/26 03:23:07;;;;;;;;;53.50;45.00;;;;;29.67;51.38;98979.47;5033556;28;9783;-76
2021/03/26 03:25:36;;;;;;;;;45.25;39.25;;;;;29.67;51.37;98982.19;5033491;28;9946;-75
2021/03/26 03:28:28;;;;;;;;;48.75;40.75;;;;;29.69;51.89;98979.09;5035865;28;9851;-75
2021/03/26 03:31:27;;;;;;;;;51.75;42.50;;;;;29.72;51.98;98968.22;5040353;28;10816;-74
2021/03/26 03:34:34;;;;;;;;;50.25;41.75;;;;;29.82;51.77;98964.72;5044247;28;9617;-75
2021/03/26 03:37:35;;;;;;;;;45.50;39.50;;;;;29.91;51.27;98964.28;5043460;28;9864;-75
2021/03/26 03:40:26;;;;;;;;;50.25;41.75;;;;;29.96;51.17;98965.84;5040572;28;9867;-75
2021/03/26 03:43:12;;;;;;;;;51.25;42.25;;;;;29.99;51.06;98962.34;5043500;28;9772;-75
2021/03/26 03:45:58;;;;;;;;;45.50;39.00;;;;;29.92;51.14;98949.53;5041877;28;9820;-75
2021/03/26 03:48:44;;;;;;;;;48.33;41.33;;;;;30.00;50.47;98961.97;5042559;28;9705;-76
2021/03/26 03:51:20;;;;;;;;;50.50;43.00;;;;;30.04;51.39;98962.75;5042834;28;9425;-77
2021/03/26 03:54:04;;;;;;;;;48.50;39.75;;;;;30.11;50.91;98953.78;5041740;28;9708;-76
2021/03/26 03:56:41;;;;;;;;;46.00;39.75;;;;;30.17;50.64;98955.72;5042316;28;9625;-77
2021/03/26 03:59:31;;;;;;;;;46.00;39.67;;;;;30.25;51.34;98959.19;5042518;28;9673;-76
2021/03/26 04:02:07;;;;;;;;;46.67;40.00;;;;;30.33;51.13;98951.78;5043852;28;9389;-76
2021/03/26 04:05:00;;;;;;;;;48.50;39.75;;;;;30.43;50.67;98948.25;5043849;28;10022;-76
2021/03/26 04:07:37;;;;;;;;;50.25;42.50;;;;;30.49;50.42;98942.00;5044426;28;9551;-75
2021/03/26 04:10:12;;;;;;;;;49.25;42.25;;;;;30.44;50.70;98934.25;5046359;28;9655;-75
2021/03/26 04:12:45;;;;;;;;;42.67;37.67;;;;;30.44;50.63;98928.81;5043942;28;9735;-76
2021/03/26 04:15:21;;;;;;;;;45.00;37.33;;;;;30.56;50.23;98938.50;5043239;28;9386;-76
2021/03/26 04:18:01;;;;;;;;;44.00;38.00;;;;;30.64;50.41;98936.53;5043024;28;9337;-75
2021/03/26 04:20:46;;;;;;;;;36.33;33.00;;;;;30.73;50.33;98934.94;5039961;28;9248;-76
2021/03/26 04:23:29;;;;;;;;;50.00;42.25;;;;;30.80;50.35;98925.97;5059571;28;9469;-75
2021/03/26 04:26:24;;;;;;;;;50.00;42.00;;;;;30.79;49.91;98924.41;5040342;28;9686;-78
2021/03/26 04:29:03;;;;;;;;;44.33;38.00;;;;;30.76;50.26;98912.38;5052556;28;10370;-75
2021/03/26 04:31:41;;;;;;;;;42.67;37.33;;;;;30.75;50.21;98910.81;5053047;28;9241;-74
2021/03/26 04:34:10;;;;;;;;;45.67;38.00;;;;;30.80;49.43;98904.94;5051829;28;9393;-77
2021/03/26 04:37:18;;;;;;;;;46.00;39.33;;;;;30.83;49.69;98901.44;5040608;28;9965;-76
2021/03/26 04:40:14;;;;;;;;;45.67;38.00;;;;;30.87;49.73;98887.00;5031365;28;9505;-76
2021/03/26 04:43:21;;;;;;;;;45.33;39.33;;;;;30.85;49.69;98879.25;5031187;28;9317;-77
2021/03/26 04:46:19;;;;;;;;;31.67;30.00;;;;;30.95;49.79;98881.13;5030831;28;9400;-77
2021/03/26 04:49:22;;;;;;;;;55.75;47.25;;;;;30.98;49.97;98882.28;5030979;28;9195;-80
2021/03/26 04:51:57;;;;;;;;;56.50;47.00;;;;;30.87;49.95;98846.94;5031136;28;10240;-81
2021/03/26 04:54:47;;;;;;;;;46.75;39.50;;;;;30.97;49.46;98862.41;5033799;28;10121;-78
2021/03/26 04:57:25;;;;;;;;;47.00;40.00;;;;;31.01;49.95;98855.00;5040937;28;9728;-83
2021/03/26 05:00:17;;;;;;;;;45.67;38.67;;;;;31.05;49.53;98853.03;5039961;28;9463;-82
2021/03/26 05:02:53;;;;;;;;;44.33;38.33;;;;;31.03;49.33;98839.03;5043792;28;9456;-80
2021/03/26 05:05:22;;;;;;;;;42.67;37.33;;;;;31.12;49.60;98835.84;5044886;28;9163;-83
2021/03/26 05:07:59;;;;;;;;;42.00;36.33;;;;;31.18;49.17;98828.81;5044273;28;10205;-83
2021/03/26 05:10:32;;;;;;;;;45.00;38.33;;;;;31.23;48.15;98827.59;5051246;28;8996;-81
2021/03/26 05:13:11;;;;;;;;;48.00;41.33;;;;;31.23;48.71;98805.78;5047261;28;9115;-76
2021/03/26 05:16:02;;;;;;;;;42.67;38.00;;;;;31.47;48.18;98823.84;5041469;28;9394;-77
2021/03/26 05:18:53;;;;;;;;;47.33;41.00;;;;;31.67;48.34;98805.72;5035004;28;9074;-77
2021/03/26 05:21:29;;;;;;;;;42.67;36.00;;;;;31.85;48.30;98804.78;5034563;28;9066;-77
2021/03/26 05:24:06;;;;;;;;;46.67;39.33;;;;;32.01;47.66;98803.03;5042806;28;9113;-78
2021/03/26 05:26:36;;;;;;;;;43.00;37.00;;;;;32.18;47.26;98795.03;5051528;28;9159;-80
2021/03/26 05:29:09;;;;;;;;;42.67;36.33;;;;;32.33;46.61;98790.94;5046578;28;8940;-81
2021/03/26 05:32:03;;;;;;;;;45.00;38.67;;;;;32.45;47.64;98778.69;5046597;28;9007;-77
2021/03/26 05:34:49;;;;;;;;;44.67;39.00;;;;;32.47;47.53;98759.94;5041686;28;8966;-77
2021/03/26 05:37:37;;;;;;;;;49.00;41.00;;;;;32.55;47.83;98753.94;5038777;28;8942;-79
2021/03/26 05:40:45;;;;;;;;;44.67;38.00;;;;;32.57;46.33;98757.00;5031827;28;9057;-73
2021/03/26 05:43:55;;;;;;;;;45.50;38.50;;;;;32.58;46.93;98741.41;5038513;28;9092;-77
2021/03/26 05:50:08;;;;;;;;;42.00;36.50;;;;;32.80;46.63;98728.19;4972615;28;9021;-77
2021/03/26 05:52:58;;;;;;;;;43.75;37.75;;;;;32.96;46.71;98720.88;4972078;28;8860;-79
2021/03/26 05:55:50;;;;;;;;;41.50;37.25;;;;;33.13;45.25;98708.09;4958492;28;8886;-81
2021/03/26 05:58:43;;;;;;;;;39.00;35.50;;;;;33.18;45.19;98688.47;4966659;28;8878;-82
2021/03/26 06:01:36;;;;;;;;;48.50;40.25;;;;;33.45;44.94;98704.78;4969653;28;8846;-82
2021/03/26 06:04:31;;;;;;;;;45.00;40.00;;;;;33.49;44.81;98674.63;4974261;28;9668;-82
2021/03/26 06:07:38;;;;;;;;;40.50;36.75;;;;;33.62;46.60;98684.50;4980599;28;8906;-80
2021/03/26 06:10:38;;;;;;;;;42.50;36.75;;;;;33.64;46.11;98684.84;4986098;28;8868;-80
2021/03/26 06:13:31;;;;;;;;;44.50;38.75;;;;;33.55;44.52;98670.97;4985718;28;8870;-77
2021/03/26 06:16:24;;;;;;;;;44.75;37.00;;;;;33.57;45.87;98665.84;4978327;28;8851;-78
2021/03/26 06:19:31;;;;;;;;;42.25;37.50;;;;;33.66;45.10;98663.31;4973864;28;8981;-79
2021/03/26 06:22:22;;;;;;;;;43.50;37.50;;;;;33.76;45.16;98649.81;4974241;28;8874;-77
2021/03/26 06:25:28;;;;;;;;;29.00;29.00;;;;;33.86;45.11;98638.66;4984975;28;8876;-78
2021/03/26 06:28:27;;;;;;;;;44.75;36.50;;;;;34.01;44.04;98644.56;5041426;28;8851;-77
2021/03/26 06:31:32;;;;;;;;;39.75;34.25;;;;;34.08;44.93;98640.88;5044613;28;8855;-77
2021/03/26 06:34:39;;;;;;;;;45.75;39.50;;;;;34.08;45.64;98638.91;5043503;28;8847;-79
2021/03/26 06:37:33;;;;;;;;;39.50;34.50;;;;;34.04;44.01;98630.03;5046470;28;8860;-79
2021/03/26 06:40:25;;;;;;;;;45.00;38.00;;;;;34.04;44.67;98627.28;5047007;28;8862;-77
2021/03/26 06:43:25;;;;;;;;;43.25;36.75;;;;;34.02;42.97;98605.81;5046105;28;8940;-78
2021/03/26 06:46:33;;;;;;;;;37.25;35.00;;;;;34.21;42.37;98611.63;5044625;28;8877;-78
2021/03/26 06:49:27;;;;;;;;;34.00;32.75;;;;;34.33;42.82;98600.78;5042941;28;8850;-77
2021/03/26 06:52:21;;;;;;;;;37.50;33.75;;;;;34.46;43.95;98611.81;5045728;28;8854;-77
2021/03/26 06:55:20;;;;;;;;;32.25;31.25;;;;;34.59;41.28;98601.69;5047477;28;8848;-76
2021/03/26 06:58:17;;;;;;;;;33.25;30.75;;;;;34.71;42.49;98602.19;5037784;28;8848;-76
2021/03/26 07:01:13;;;;;;;;;35.25;32.75;;;;;34.78;41.48;98588.28;5041150;28;8955;-77
2021/03/26 07:04:13;;;;;;;;;35.00;33.00;;;;;34.90;40.91;98590.34;5041496;28;8917;-76
2021/03/26 07:07:04;;;;;;;;;34.75;33.00;;;;;34.95;41.64;98579.59;5048434;28;8874;-77
2021/03/26 07:10:07;;;;;;;;;36.00;33.50;;;;;35.04;41.55;98575.47;5042018;28;8890;-76
2021/03/26 07:12:59;;;;;;;;;39.25;34.00;;;;;35.07;42.01;98569.88;5037824;28;8839;-76
2021/03/26 07:15:42;;;;;;;;;36.25;33.25;;;;;35.14;40.87;98563.38;5036998;28;8906;-76
2021/03/26 07:18:35;;;;;;;;;35.00;33.00;;;;;35.16;40.24;98558.22;5031866;28;8862;-76
2021/03/26 07:21:20;;;;;;;;;22.00;22.00;;;;;35.20;40.26;98564.38;5040604;28;8851;-76
2021/03/26 07:24:14;;;;;;;;;38.00;35.00;;;;;35.23;40.97;98552.53;5044963;28;8833;-75
2021/03/26 07:27:10;;;;;;;;;33.75;32.25;;;;;35.25;42.40;98552.88;5052945;28;8848;-76
2021/03/26 07:30:10;;;;;;;;;38.25;33.50;;;;;35.27;40.36;98548.50;5052745;28;8840;-77
2021/03/26 07:33:10;;;;;;;;;41.75;35.50;;;;;35.32;40.89;98538.97;5053673;28;8840;-77
2021/03/26 07:36:17;;;;;;;;;34.25;31.25;;;;;35.35;41.46;98535.34;5054125;28;8917;-75
2021/03/26 07:39:10;;;;;;;;;34.25;32.50;;;;;35.38;40.71;98536.47;5052049;28;8872;-76
2021/03/26 07:42:10;;;;;;;;;32.25;31.25;;;;;35.40;40.25;98540.28;5054179;28;8844;-76
2021/03/26 07:45:17;;;;;;;;;28.50;28.50;;;;;35.43;40.68;98530.44;5036951;28;8855;-77
2021/03/26 07:48:06;;;;;;;;;35.00;33.00;;;;;35.39;42.49;98530.53;5045075;28;8863;-75
2021/03/26 07:50:47;;;;;;;;;37.00;33.50;;;;;35.30;39.99;98522.16;5041538;28;9039;-75
2021/03/26 07:53:47;;;;;;;;;34.50;32.00;;;;;35.22;41.92;98524.34;5050661;28;8844;-78
2021/03/26 07:56:55;;;;;;;;;37.50;34.00;;;;;35.16;41.84;98520.63;5052860;28;8860;-77
2021/03/26 07:59:48;;;;;;;;;38.75;35.00;;;;;35.15;40.63;98512.81;5052044;28;8852;-76
2021/03/26 08:02:48;;;;;;;;;39.75;35.75;;;;;35.17;40.59;98513.16;5033587;28;8851;-75
2021/03/26 08:05:54;;;;;;;;;42.00;38.25;;;;;35.14;40.18;98503.06;5043583;28;8857;-76
2021/03/26 08:08:54;;;;;;;;;40.25;36.50;;;;;35.20;40.35;98502.09;5047042;28;8828;-76
2021/03/26 08:11:49;;;;;;;;;34.75;32.75;;;;;35.27;39.87;98504.59;5048036;28;8908;-77
2021/03/26 08:14:48;;;;;;;;;35.75;33.25;;;;;35.34;40.35;98506.41;5041231;28;8831;-77
2021/03/26 08:17:37;;;;;;;;;35.00;32.50;;;;;35.38;40.36;98501.56;5046321;28;8937;-79
2021/03/26 08:20:32;;;;;;;;;34.25;31.75;;;;;35.41;40.06;98497.94;5039364;28;8835;-75
2021/03/26 08:23:32;;;;;;;;;39.00;34.00;;;;;35.43;39.63;98494.75;5039352;28;8945;-77
2021/03/26 08:26:18;;;;;;;;;33.25;32.25;;;;;35.43;38.60;98486.53;5038817;28;8847;-77
2021/03/26 08:32:20;;;;;;;;;37.75;34.50;;;;;35.51;37.83;98490.59;5037636;28;8831;-77
2021/03/26 08:35:12;;;;;;;;;36.25;33.25;;;;;35.52;43.02;98479.19;5040035;28;8847;-76
2021/03/26 08:38:11;;;;;;;;;31.00;29.50;;;;;35.42;39.98;98485.00;5041577;28;8832;-78
2021/03/26 08:41:00;;;;;;;;;38.00;34.50;;;;;35.33;39.66;98473.91;5039123;28;8852;-76
2021/03/26 08:43:33;;;;;;;;;24.25;24.25;;;;;35.26;39.76;98483.88;5039305;28;8835;-76
2021/03/26 08:46:27;;;;;;;;;36.00;32.75;;;;;35.29;41.25;98484.97;5039578;28;8844;-79
2021/03/26 08:49:25;;;;;;;;;36.50;32.75;;;;;35.30;39.78;98472.78;5038518;28;8862;-78
2021/03/26 08:52:32;;;;;;;;;34.50;32.25;;;;;35.30;39.25;98473.59;5038266;28;8867;-79
2021/03/26 08:55:32;;;;;;;;;36.50;34.50;;;;;35.33;39.86;98468.44;5040358;28;8926;-79
2021/03/26 08:58:40;;;;;;;;;38.25;33.50;;;;;35.33;40.06;98466.47;5058945;28;8910;-77
2021/03/26 09:01:43;;;;;;;;;39.25;34.00;;;;;35.32;39.90;98467.66;5040281;28;8856;-77
2021/03/26 09:04:43;;;;;;;;;27.50;27.25;;;;;35.33;39.92;98457.47;5031762;28;8862;-75
2021/03/26 09:07:40;;;;;;;;;30.50;30.50;;;;;35.30;39.98;98464.56;5036887;28;9609;-75
2021/03/26 09:10:39;;;;;;;;;33.00;32.00;;;;;35.24;39.57;98471.81;5038737;28;8892;-75
2021/03/26 09:13:34;;;;;;;;;38.75;33.75;;;;;35.17;40.07;98461.06;5040823;28;8977;-76
2021/03/26 09:16:28;;;;;;;;;33.00;31.00;;;;;35.11;41.73;98462.81;5044353;28;8864;-74
2021/03/26 09:19:22;;;;;;;;;37.75;35.00;;;;;34.98;41.54;98460.09;5039424;28;8844;-79
2021/03/26 09:22:30;;;;;;;;;39.00;34.75;;;;;34.76;42.28;98445.47;5034812;28;8882;-75
2021/03/26 09:25:28;;;;;;;;;35.00;34.00;;;;;34.65;42.35;98454.00;5048570;28;8990;-75
2021/03/26 09:28:07;;;;;;;;;37.75;33.75;;;;;34.49;42.83;98449.34;5037413;28;8877;-72
2021/03/26 09:30:45;;;;;;;;;38.50;35.25;;;;;34.37;43.12;98450.09;5038899;28;8924;-74
2021/03/26 09:33:15;;;;;;;;;36.00;33.50;;;;;34.28;42.53;98452.66;5053615;28;8837;-73
2021/03/26 09:35:56;;;;;;;;;40.50;36.25;;;;;34.18;42.48;98454.47;5035281;28;8824;-78
2021/03/26 09:38:37;;;;;;;;;35.00;33.50;;;;;34.12;42.52;98450.72;5029765;28;8871;-75
2021/03/26 09:41:24;;;;;;;;;37.75;34.75;;;;;34.06;43.43;98452.44;5034486;28;8873;-74
2021/03/26 09:44:30;;;;;;;;;43.50;37.50;;;;;33.99;43.69;98455.38;5036719;28;8858;-73
2021/03/26 09:47:13;;;;;;;;;38.75;35.75;;;;;33.89;43.61;98454.44;5039645;28;8891;-74
2021/03/26 09:49:51;;;;;;;;;39.25;35.00;;;;;33.72;43.62;98448.22;5034356;28;8863;-74
2021/03/26 09:52:37;;;;;;;;;40.50;35.25;;;;;33.74;43.68;98461.47;5039609;28;8844;-77
2021/03/26 09:55:37;;;;;;;;;38.50;34.25;;;;;33.70;43.30;98463.53;5048790;28;8872;-77
2021/03/26 09:58:47;;;;;;;;;36.00;33.00;;;;;33.64;43.49;98470.72;5050407;28;8864;-76
2021/03/26 10:01:23;;;;;;;;;39.75;35.75;;;;;33.51;43.47;98459.69;5050351;28;8867;-78
2021/03/26 10:04:07;;;;;;;;;37.25;34.25;;;;;33.53;43.84;98456.53;5049000;28;8921;-77
2021/03/26 10:07:18;;;;;;;;;34.75;32.25;;;;;33.51;43.80;98465.16;5031704;28;8847;-79
2021/03/26 10:10:00;;;;;;;;;41.25;35.75;;;;;33.47;43.81;98469.94;5031129;28;8874;-78
2021/03/26 10:12:41;;;;;;;;;32.50;31.25;;;;;33.43;43.97;98469.25;5030977;28;8865;-78
2021/03/26 10:15:35;;;;;;;;;36.25;34.00;;;;;33.39;44.03;98471.31;5046532;28;8882;-77
2021/03/26 10:18:25;;;;;;;;;41.50;36.50;;;;;33.36;44.36;98466.69;5039282;28;8848;-77
2021/03/26 10:21:15;;;;;;;;;35.75;34.00;;;;;33.25;44.31;98461.44;5052056;28;8848;-78
2021/03/26 10:24:15;;;;;;;;;35.75;32.75;;;;;33.26;44.11;98464.94;5051571;28;8845;-77
2021/03/26 10:27:14;;;;;;;;;26.75;26.00;;;;;33.23;44.16;98474.00;5051309;28;8940;-78
2021/03/26 10:30:07;;;;;;;;;35.25;32.50;;;;;33.21;44.33;98471.69;5050310;28;8855;-73
2021/03/26 10:32:42;;;;;;;;;36.25;33.75;;;;;33.15;44.36;98467.16;5051467;28;8957;-73
2021/03/26 10:35:22;;;;;;;;;42.25;35.50;;;;;33.15;44.09;98464.41;5051499;28;8851;-74
2021/03/26 10:38:12;;;;;;;;;37.75;34.25;;;;;33.12;44.43;98471.50;5050998;28;8898;-74
2021/03/26 10:41:06;;;;;;;;;41.50;36.75;;;;;33.07;44.35;98470.03;5051367;28;8871;-73
2021/03/26 10:43:42;;;;;;;;;39.75;35.50;;;;;32.97;44.55;98460.09;5050245;28;8844;-73
2021/03/26 10:46:31;;;;;;;;;36.50;33.25;;;;;32.93;44.20;98469.56;5052162;28;8930;-73
2021/03/26 10:49:11;;;;;;;;;42.00;37.00;;;;;32.85;44.13;98462.72;5051275;28;8867;-74
2021/03/26 10:52:11;;;;;;;;;48.25;41.75;;;;;32.83;44.44;98460.41;5053520;28;8847;-75
2021/03/26 10:55:10;;;;;;;;;42.25;36.50;;;;;32.78;44.44;98460.13;5044906;28;8963;-79
2021/03/26 10:57:57;;;;;;;;;42.50;36.00;;;;;32.75;44.51;98461.72;5043863;28;8965;-80
2021/03/26 11:00:34;;;;;;;;;42.75;37.50;;;;;32.69;44.87;98463.41;5045422;28;8858;-79
2021/03/26 11:03:15;;;;;;;;;37.75;33.50;;;;;32.53;45.19;98449.69;5043495;28;8866;-80
2021/03/26 11:05:59;;;;;;;;;42.25;36.25;;;;;32.54;45.17;98459.41;5042680;28;8847;-78
2021/03/26 11:08:51;;;;;;;;;36.75;33.25;;;;;32.41;45.45;98467.50;5042852;28;8873;-79
2021/03/26 11:11:54;;;;;;;;;47.00;39.25;;;;;32.41;45.34;98467.50;5046557;28;8901;-79
2021/03/26 11:14:58;;;;;;;;;39.00;34.00;;;;;32.34;45.33;98475.81;5048052;28;9633;-81
2021/03/26 11:17:51;;;;;;;;;40.25;36.00;;;;;32.25;45.41;98470.91;5046509;28;8829;-75
2021/03/26 11:20:38;;;;;;;;;37.75;34.50;;;;;32.19;45.77;98475.28;5045945;28;8877;-75
2021/03/26 11:23:26;;;;;;;;;47.00;39.75;;;;;32.19;45.48;98480.75;5045682;28;8835;-76
2021/03/26 11:26:20;;;;;;;;;40.75;37.25;;;;;32.15;45.39;98485.50;5040776;28;8946;-76
2021/03/26 11:29:17;;;;;;;;;38.75;35.00;;;;;32.11;45.60;98493.75;5042253;28;9009;-74
2021/03/26 11:32:10;;;;;;;;;41.25;36.50;;;;;31.94;46.41;98470.28;5043683;28;8824;-73
2021/03/26 11:35:10;;;;;;;;;40.50;35.75;;;;;32.05;45.93;98500.09;5042331;28;9569;-73
2021/03/26 11:38:01;;;;;;;;;45.25;38.50;;;;;32.00;46.38;98498.63;5039911;28;8852;-73
2021/03/26 11:40:41;;;;;;;;;39.50;35.50;;;;;32.00;46.38;98506.03;5040186;28;8947;-73
2021/03/26 11:43:20;;;;;;;;;41.50;35.50;;;;;31.96;45.98;98503.38;5040163;28;8836;-74
2021/03/26 11:46:04;;;;;;;;;41.00;34.50;;;;;31.91;46.20;98492.16;5039682;28;8918;-74
2021/03/26 11:49:01;;;;;;;;;37.75;34.50;;;;;31.90;46.61;98510.47;5041086;28;9604;-74
2021/03/26 11:51:55;;;;;;;;;42.25;37.75;;;;;31.88;46.83;98520.25;5042920;28;8851;-74
2021/03/26 11:54:55;;;;;;;;;51.67;42.67;;;;;31.87;46.99;98524.19;5039820;28;8843;-74
2021/03/26 11:57:45;;;;;;;;;46.00;38.50;;;;;31.85;46.65;98532.00;5039702;28;8930;-75
2021/03/26 12:00:28;;;;;;;;;44.67;38.33;;;;;31.82;47.47;98539.06;5041135;28;8838;-75
2021/03/26 12:03:17;;;;;;;;;43.50;37.75;;;;;31.82;46.95;98543.75;5040172;28;9118;-75
2021/03/26 12:06:11;;;;;;;;;40.75;36.00;;;;;31.79;46.05;98546.09;5043555;28;8944;-74
2021/03/26 12:09:15;;;;;;;;;37.33;32.67;;;;;31.74;46.02;98545.81;5042415;28;9558;-74
2021/03/26 12:12:06;;;;;;;;;41.75;37.25;;;;;31.73;46.17;98545.03;5040002;28;8977;-72
2021/03/26 12:15:06;;;;;;;;;47.00;39.75;;;;;31.70;46.99;98550.53;5042859;28;8889;-73
2021/03/26 12:18:06;;;;;;;;;44.00;38.50;;;;;31.66;46.25;98547.84;5036874;28;8847;-73
2021/03/26 12:20:42;;;;;;;;;42.75;37.50;;;;;31.56;46.45;98550.72;5038061;28;8910;-73
2021/03/26 12:23:41;;;;;;;;;45.33;39.00;;;;;31.55;47.35;98558.13;5037711;28;8873;-74
2021/03/26 12:26:25;;;;;;;;;50.00;42.33;;;;;31.48;47.61;98555.50;5039616;28;9776;-74
2021/03/26 12:29:18;;;;;;;;;43.75;37.75;;;;;31.45;47.55;98551.66;5037057;28;9089;-74
2021/03/26 12:32:12;;;;;;;;;44.67;38.67;;;;;31.52;47.57;98577.25;5036292;28;8862;-74
2021/03/26 12:34:54;;;;;;;;;42.75;38.50;;;;;31.51;47.03;98581.16;5039085;28;8959;-73
2021/03/26 12:37:51;;;;;;;;;42.50;37.00;;;;;31.49;46.66;98587.03;5040559;28;8924;-73
2021/03/26 12:40:44;;;;;;;;;43.75;38.25;;;;;31.45;46.45;98591.75;5046184;28;8852;-75
2021/03/26 12:43:44;;;;;;;;;49.67;40.67;;;;;31.44;46.27;98603.84;5038328;28;8981;-73
2021/03/26 12:46:44;;;;;;;;;40.25;35.75;;;;;31.40;46.28;98606.63;5043437;28;9239;-74
2021/03/26 12:52:48;;;;;;;;;37.00;33.75;;;;;31.37;46.80;98617.56;5043854;28;8884;-76
2021/03/26 12:55:48;;;;;;;;;31.00;28.67;;;;;31.32;47.51;98615.28;5047320;28;8844;-73
2021/03/26 12:58:41;;;;;;;;;42.75;38.00;;;;;31.29;46.66;98622.34;5049982;28;8959;-71
2021/03/26 13:01:17;;;;;;;;;41.00;37.75;;;;;31.27;47.21;98623.91;5039987;28;8971;-71
2021/03/26 13:04:07;;;;;;;;;38.00;34.50;;;;;31.25;47.35;98629.00;5047793;28;8840;-76